sensor_id;sensor_type;location;lat;lon;timestamp;temperature;humidity
1025;DHT22;501;48.214;11.350;2023-05-09T00:01:17;11.90;54.00
1025;DHT22;501;48.214;11.350;2023-05-09T00:03:42;11.80;53.90
1025;DHT22;501;48.214;11.350;2023-05-09T00:06:08;11.80;54.40
1025;DHT22;501;48.214;11.350;2023-05-09T00:08:35;11.80;54.60
1025;DHT22;501;48.214;11.350;2023-05-09T00:11:02;11.70;53.30
1025;DHT22;501;48.214;11.350;2023-05-09T00:13:28;11.70;53.40
1025;DHT22;501;48.214;11.350;2023-05-09T00:15:54;11.70;53.00
1025;DHT22;501;48.214;11.350;2023-05-09T00:18:22;11.70;53.20
1025;DHT22;501;48.214;11.350;2023-05-09T00:20:48;11.60;52.70
1025;DHT22;501;48.214;11.350;2023-05-09T00:23:15;11.60;52.80
1025;DHT22;501;48.214;11.350;2023-05-09T00:25:41;11.60;52.80
1025;DHT22;501;48.214;11.350;2023-05-09T00:28:07;11.50;53.10
1025;DHT22;501;48.214;11.350;2023-05-09T00:30:32;11.50;52.70
1025;DHT22;501;48.214;11.350;2023-05-09T00:33:11;11.50;53.00
1025;DHT22;501;48.214;11.350;2023-05-09T00:35:37;11.40;53.30
1025;DHT22;501;48.214;11.350;2023-05-09T00:38:03;11.40;53.70
1025;DHT22;501;48.214;11.350;2023-05-09T00:40:28;11.30;54.70
1025;DHT22;501;48.214;11.350;2023-05-09T00:42:54;11.30;56.10
1025;DHT22;501;48.214;11.350;2023-05-09T00:45:22;11.30;56.50
1025;DHT22;501;48.214;11.350;2023-05-09T00:47:48;11.30;55.60
1025;DHT22;501;48.214;11.350;2023-05-09T00:50:14;11.30;55.60
1025;DHT22;501;48.214;11.350;2023-05-09T00:52:40;11.30;55.40
1025;DHT22;501;48.214;11.350;2023-05-09T00:55:07;11.30;55.60
1025;DHT22;501;48.214;11.350;2023-05-09T00:57:33;11.30;55.90
1025;DHT22;501;48.214;11.350;2023-05-09T00:59:59;11.20;56.50
1025;DHT22;501;48.214;11.350;2023-05-09T01:02:25;11.20;55.90
1025;DHT22;501;48.214;11.350;2023-05-09T01:04:51;11.20;56.70
1025;DHT22;501;48.214;11.350;2023-05-09T01:07:37;11.20;56.30
1025;DHT22;501;48.214;11.350;2023-05-09T01:12:59;11.30;55.90
1025;DHT22;501;48.214;11.350;2023-05-09T01:18:18;11.20;54.70
1025;DHT22;501;48.214;11.350;2023-05-09T01:20:52;11.20;54.90
1025;DHT22;501;48.214;11.350;2023-05-09T01:26:22;11.20;55.10
1025;DHT22;501;48.214;11.350;2023-05-09T01:31:37;11.10;54.60
1025;DHT22;501;48.214;11.350;2023-05-09T01:34:05;11.10;54.30
1025;DHT22;501;48.214;11.350;2023-05-09T01:36:32;11.10;54.30
1025;DHT22;501;48.214;11.350;2023-05-09T01:38:59;11.00;54.20
1025;DHT22;501;48.214;11.350;2023-05-09T01:41:29;11.00;54.20
1025;DHT22;501;48.214;11.350;2023-05-09T01:43:56;11.00;54.20
1025;DHT22;501;48.214;11.350;2023-05-09T01:46:24;10.90;54.80
1025;DHT22;501;48.214;11.350;2023-05-09T01:48:52;10.90;54.60
1025;DHT22;501;48.214;11.350;2023-05-09T01:51:19;10.90;54.70
1025;DHT22;501;48.214;11.350;2023-05-09T01:53:47;10.90;54.90
1025;DHT22;501;48.214;11.350;2023-05-09T01:56:14;10.90;55.90
1025;DHT22;501;48.214;11.350;2023-05-09T01:58:41;10.80;54.60
1025;DHT22;501;48.214;11.350;2023-05-09T02:01:08;10.80;55.10
1025;DHT22;501;48.214;11.350;2023-05-09T02:03:36;10.80;56.10
1025;DHT22;501;48.214;11.350;2023-05-09T02:06:02;10.80;56.70
1025;DHT22;501;48.214;11.350;2023-05-09T02:08:29;10.80;56.70
1025;DHT22;501;48.214;11.350;2023-05-09T02:10:55;10.80;56.90
1025;DHT22;501;48.214;11.350;2023-05-09T02:13:21;10.80;56.30
1025;DHT22;501;48.214;11.350;2023-05-09T02:15:47;10.80;56.30
1025;DHT22;501;48.214;11.350;2023-05-09T02:18:12;10.80;56.40
1025;DHT22;501;48.214;11.350;2023-05-09T02:20:38;10.70;56.50
1025;DHT22;501;48.214;11.350;2023-05-09T02:23:04;10.70;56.70
1025;DHT22;501;48.214;11.350;2023-05-09T02:25:31;10.70;56.90
1025;DHT22;501;48.214;11.350;2023-05-09T02:27:58;10.70;56.70
1025;DHT22;501;48.214;11.350;2023-05-09T02:30:25;10.70;56.50
1025;DHT22;501;48.214;11.350;2023-05-09T02:32:56;10.80;56.60
1025;DHT22;501;48.214;11.350;2023-05-09T02:35:25;10.80;56.70
1025;DHT22;501;48.214;11.350;2023-05-09T02:37:52;10.70;55.90
1025;DHT22;501;48.214;11.350;2023-05-09T02:40:19;10.70;55.80
1025;DHT22;501;48.214;11.350;2023-05-09T02:42:46;10.70;55.60
1025;DHT22;501;48.214;11.350;2023-05-09T02:45:11;10.70;55.80
1025;DHT22;501;48.214;11.350;2023-05-09T02:47:37;10.60;55.60
1025;DHT22;501;48.214;11.350;2023-05-09T02:50:04;10.60;56.10
1025;DHT22;501;48.214;11.350;2023-05-09T02:52:30;10.60;55.90
1025;DHT22;501;48.214;11.350;2023-05-09T02:54:56;10.60;55.60
1025;DHT22;501;48.214;11.350;2023-05-09T02:57:21;10.50;56.10
1025;DHT22;501;48.214;11.350;2023-05-09T02:59:47;10.50;56.30
1025;DHT22;501;48.214;11.350;2023-05-09T03:02:12;10.50;56.00
1025;DHT22;501;48.214;11.350;2023-05-09T03:04:38;10.50;56.20
1025;DHT22;501;48.214;11.350;2023-05-09T03:07:04;10.40;55.50
1025;DHT22;501;48.214;11.350;2023-05-09T03:09:30;10.40;55.70
1025;DHT22;501;48.214;11.350;2023-05-09T03:11:55;10.40;55.60
1025;DHT22;501;48.214;11.350;2023-05-09T03:14:21;10.40;55.20
1025;DHT22;501;48.214;11.350;2023-05-09T03:16:47;10.40;54.70
1025;DHT22;501;48.214;11.350;2023-05-09T03:19:12;10.30;54.10
1025;DHT22;501;48.214;11.350;2023-05-09T03:21:38;10.30;54.50
1025;DHT22;501;48.214;11.350;2023-05-09T03:24:05;10.30;54.50
1025;DHT22;501;48.214;11.350;2023-05-09T03:26:32;10.20;54.10
1025;DHT22;501;48.214;11.350;2023-05-09T03:29:00;10.20;54.00
1025;DHT22;501;48.214;11.350;2023-05-09T03:31:25;10.20;53.80
1025;DHT22;501;48.214;11.350;2023-05-09T03:33:51;10.20;53.90
1025;DHT22;501;48.214;11.350;2023-05-09T03:36:17;10.10;53.60
1025;DHT22;501;48.214;11.350;2023-05-09T03:38:42;10.10;53.90
1025;DHT22;501;48.214;11.350;2023-05-09T03:41:08;10.00;54.10
1025;DHT22;501;48.214;11.350;2023-05-09T03:43:34;10.00;54.70
1025;DHT22;501;48.214;11.350;2023-05-09T03:46:00;10.00;54.70
1025;DHT22;501;48.214;11.350;2023-05-09T03:48:25;10.00;55.60
1025;DHT22;501;48.214;11.350;2023-05-09T03:50:51;9.90;57.20
1025;DHT22;501;48.214;11.350;2023-05-09T03:53:16;9.90;56.70
1025;DHT22;501;48.214;11.350;2023-05-09T03:55:42;9.90;57.10
1025;DHT22;501;48.214;11.350;2023-05-09T03:58:08;9.90;57.30
1025;DHT22;501;48.214;11.350;2023-05-09T04:00:34;9.90;58.30
1025;DHT22;501;48.214;11.350;2023-05-09T04:02:59;9.90;58.40
1025;DHT22;501;48.214;11.350;2023-05-09T04:05:25;9.90;58.40
1025;DHT22;501;48.214;11.350;2023-05-09T04:07:51;9.90;58.00
1025;DHT22;501;48.214;11.350;2023-05-09T04:10:17;9.80;57.50
1025;DHT22;501;48.214;11.350;2023-05-09T04:12:43;9.80;57.00
1025;DHT22;501;48.214;11.350;2023-05-09T04:15:09;9.80;57.60
1025;DHT22;501;48.214;11.350;2023-05-09T04:17:35;9.80;58.30
1025;DHT22;501;48.214;11.350;2023-05-09T04:20:01;9.80;58.40
1025;DHT22;501;48.214;11.350;2023-05-09T04:22:27;9.90;58.40
1025;DHT22;501;48.214;11.350;2023-05-09T04:24:53;9.90;58.40
1025;DHT22;501;48.214;11.350;2023-05-09T04:27:19;9.90;58.00
1025;DHT22;501;48.214;11.350;2023-05-09T04:29:44;9.90;58.40
1025;DHT22;501;48.214;11.350;2023-05-09T04:32:10;10.00;57.60
1025;DHT22;501;48.214;11.350;2023-05-09T04:34:36;10.10;57.60
1025;DHT22;501;48.214;11.350;2023-05-09T04:37:01;10.10;57.70
1025;DHT22;501;48.214;11.350;2023-05-09T04:39:27;10.20;58.00
1025;DHT22;501;48.214;11.350;2023-05-09T04:41:54;10.20;57.80
1025;DHT22;501;48.214;11.350;2023-05-09T04:44:20;10.40;58.60
1025;DHT22;501;48.214;11.350;2023-05-09T04:46:46;10.60;58.10
1025;DHT22;501;48.214;11.350;2023-05-09T04:49:12;10.70;56.60
1025;DHT22;501;48.214;11.350;2023-05-09T04:51:38;11.00;56.80
1025;DHT22;501;48.214;11.350;2023-05-09T04:54:03;11.30;54.40
1025;DHT22;501;48.214;11.350;2023-05-09T04:56:29;11.40;52.60
1025;DHT22;501;48.214;11.350;2023-05-09T04:58:54;11.40;51.60
1025;DHT22;501;48.214;11.350;2023-05-09T05:01:20;11.40;52.00
1025;DHT22;501;48.214;11.350;2023-05-09T05:03:46;11.40;51.90
1025;DHT22;501;48.214;11.350;2023-05-09T05:06:11;11.40;51.90
1025;DHT22;501;48.214;11.350;2023-05-09T05:08:37;11.50;52.00
1025;DHT22;501;48.214;11.350;2023-05-09T05:11:03;11.50;52.10
1025;DHT22;501;48.214;11.350;2023-05-09T05:13:28;11.50;52.40
1025;DHT22;501;48.214;11.350;2023-05-09T05:15:54;11.60;53.30
1025;DHT22;501;48.214;11.350;2023-05-09T05:18:20;11.70;53.70
1025;DHT22;501;48.214;11.350;2023-05-09T05:20:46;11.70;53.00
1025;DHT22;501;48.214;11.350;2023-05-09T05:23:12;11.90;52.10
1025;DHT22;501;48.214;11.350;2023-05-09T05:25:38;11.90;50.70
1025;DHT22;501;48.214;11.350;2023-05-09T05:28:03;12.00;50.80
1025;DHT22;501;48.214;11.350;2023-05-09T05:30:29;12.00;50.40
1025;DHT22;501;48.214;11.350;2023-05-09T05:32:55;12.10;49.90
1025;DHT22;501;48.214;11.350;2023-05-09T05:35:20;12.10;49.00
1025;DHT22;501;48.214;11.350;2023-05-09T05:37:48;12.20;50.50
1025;DHT22;501;48.214;11.350;2023-05-09T05:40:13;12.30;47.70
1025;DHT22;501;48.214;11.350;2023-05-09T05:42:39;12.40;48.00
1025;DHT22;501;48.214;11.350;2023-05-09T05:45:05;12.40;48.40
1025;DHT22;501;48.214;11.350;2023-05-09T05:47:32;12.60;49.30
1025;DHT22;501;48.214;11.350;2023-05-09T05:49:58;12.60;47.30
1025;DHT22;501;48.214;11.350;2023-05-09T05:52:24;12.70;47.10
1025;DHT22;501;48.214;11.350;2023-05-09T05:54:54;12.80;47.10
1025;DHT22;501;48.214;11.350;2023-05-09T05:57:20;12.90;46.30
1025;DHT22;501;48.214;11.350;2023-05-09T05:59:47;12.90;46.80
1025;DHT22;501;48.214;11.350;2023-05-09T06:02:13;13.00;47.00
1025;DHT22;501;48.214;11.350;2023-05-09T06:04:40;13.10;45.70
1025;DHT22;501;48.214;11.350;2023-05-09T06:07:05;13.20;46.10
1025;DHT22;501;48.214;11.350;2023-05-09T06:09:31;13.20;46.00
1025;DHT22;501;48.214;11.350;2023-05-09T06:11:57;13.30;45.50
1025;DHT22;501;48.214;11.350;2023-05-09T06:14:22;13.30;44.60
1025;DHT22;501;48.214;11.350;2023-05-09T06:16:48;13.40;45.40
1025;DHT22;501;48.214;11.350;2023-05-09T06:19:13;13.40;44.20
1025;DHT22;501;48.214;11.350;2023-05-09T06:21:39;13.50;44.40
1025;DHT22;501;48.214;11.350;2023-05-09T06:24:05;13.50;43.30
1025;DHT22;501;48.214;11.350;2023-05-09T06:26:31;13.60;43.60
1025;DHT22;501;48.214;11.350;2023-05-09T06:28:56;13.60;43.40
1025;DHT22;501;48.214;11.350;2023-05-09T06:31:22;13.60;43.40
1025;DHT22;501;48.214;11.350;2023-05-09T06:33:47;13.70;43.30
1025;DHT22;501;48.214;11.350;2023-05-09T06:36:13;13.70;43.40
1025;DHT22;501;48.214;11.350;2023-05-09T06:38:38;13.70;42.60
1025;DHT22;501;48.214;11.350;2023-05-09T06:41:04;13.70;42.70
1025;DHT22;501;48.214;11.350;2023-05-09T06:43:30;13.70;42.70
1025;DHT22;501;48.214;11.350;2023-05-09T06:45:55;13.70;42.70
1025;DHT22;501;48.214;11.350;2023-05-09T06:48:21;13.70;43.40
1025;DHT22;501;48.214;11.350;2023-05-09T06:50:48;13.70;43.50
1025;DHT22;501;48.214;11.350;2023-05-09T06:53:14;13.70;43.50
1025;DHT22;501;48.214;11.350;2023-05-09T06:55:40;13.80;43.60
1025;DHT22;501;48.214;11.350;2023-05-09T06:58:05;13.80;43.60
1025;DHT22;501;48.214;11.350;2023-05-09T07:00:31;13.90;43.20
1025;DHT22;501;48.214;11.350;2023-05-09T07:02:57;13.90;42.90
1025;DHT22;501;48.214;11.350;2023-05-09T07:05:22;13.90;43.40
1025;DHT22;501;48.214;11.350;2023-05-09T07:07:48;13.90;42.40
1025;DHT22;501;48.214;11.350;2023-05-09T07:10:13;14.00;42.90
1025;DHT22;501;48.214;11.350;2023-05-09T07:12:40;14.00;42.20
1025;DHT22;501;48.214;11.350;2023-05-09T07:15:06;14.00;42.50
1025;DHT22;501;48.214;11.350;2023-05-09T07:17:32;14.10;42.70
1025;DHT22;501;48.214;11.350;2023-05-09T07:19:57;14.20;42.30
1025;DHT22;501;48.214;11.350;2023-05-09T07:22:23;14.30;42.80
1025;DHT22;501;48.214;11.350;2023-05-09T07:24:48;14.30;42.10
1025;DHT22;501;48.214;11.350;2023-05-09T07:27:15;14.40;42.30
1025;DHT22;501;48.214;11.350;2023-05-09T07:29:41;14.50;41.70
1025;DHT22;501;48.214;11.350;2023-05-09T07:32:06;14.60;42.10
1025;DHT22;501;48.214;11.350;2023-05-09T07:34:32;14.60;42.00
1025;DHT22;501;48.214;11.350;2023-05-09T07:36:58;14.80;41.90
1025;DHT22;501;48.214;11.350;2023-05-09T07:39:23;14.90;43.40
1025;DHT22;501;48.214;11.350;2023-05-09T07:41:49;15.00;42.20
1025;DHT22;501;48.214;11.350;2023-05-09T07:44:14;15.10;41.20
1025;DHT22;501;48.214;11.350;2023-05-09T07:46:40;15.20;41.50
1025;DHT22;501;48.214;11.350;2023-05-09T07:49:06;15.20;40.40
1025;DHT22;501;48.214;11.350;2023-05-09T07:51:32;15.30;41.60
1025;DHT22;501;48.214;11.350;2023-05-09T07:53:58;15.30;41.40
1025;DHT22;501;48.214;11.350;2023-05-09T07:56:24;15.30;41.80
1025;DHT22;501;48.214;11.350;2023-05-09T07:58:51;15.30;41.00
1025;DHT22;501;48.214;11.350;2023-05-09T08:01:16;15.40;41.60
1025;DHT22;501;48.214;11.350;2023-05-09T08:03:42;15.40;40.70
1025;DHT22;501;48.214;11.350;2023-05-09T08:06:07;15.50;41.20
1025;DHT22;501;48.214;11.350;2023-05-09T08:08:33;15.50;41.60
1025;DHT22;501;48.214;11.350;2023-05-09T08:10:59;15.50;41.50
1025;DHT22;501;48.214;11.350;2023-05-09T08:13:24;15.60;40.90
1025;DHT22;501;48.214;11.350;2023-05-09T08:15:50;15.60;41.40
1025;DHT22;501;48.214;11.350;2023-05-09T08:18:16;15.60;40.80
1025;DHT22;501;48.214;11.350;2023-05-09T08:20:41;15.60;40.80
1025;DHT22;501;48.214;11.350;2023-05-09T08:23:07;15.50;41.00
1025;DHT22;501;48.214;11.350;2023-05-09T08:25:33;15.60;41.10
1025;DHT22;501;48.214;11.350;2023-05-09T08:27:59;15.60;40.50
1025;DHT22;501;48.214;11.350;2023-05-09T08:30:24;15.60;40.80
1025;DHT22;501;48.214;11.350;2023-05-09T08:32:50;15.60;41.10
1025;DHT22;501;48.214;11.350;2023-05-09T08:35:15;15.50;41.40
1025;DHT22;501;48.214;11.350;2023-05-09T08:37:41;15.50;41.60
1025;DHT22;501;48.214;11.350;2023-05-09T08:40:07;15.50;41.20
1025;DHT22;501;48.214;11.350;2023-05-09T08:42:35;15.50;40.60
1025;DHT22;501;48.214;11.350;2023-05-09T08:45:08;15.50;41.10
1025;DHT22;501;48.214;11.350;2023-05-09T08:47:38;15.50;42.30
1025;DHT22;501;48.214;11.350;2023-05-09T08:50:04;15.60;42.50
1025;DHT22;501;48.214;11.350;2023-05-09T08:52:31;15.60;43.10
1025;DHT22;501;48.214;11.350;2023-05-09T08:54:57;15.70;43.40
1025;DHT22;501;48.214;11.350;2023-05-09T08:57:26;15.80;42.70
1025;DHT22;501;48.214;11.350;2023-05-09T08:59:52;15.80;41.40
1025;DHT22;501;48.214;11.350;2023-05-09T09:02:18;15.80;42.00
1025;DHT22;501;48.214;11.350;2023-05-09T09:04:44;15.80;42.90
1025;DHT22;501;48.214;11.350;2023-05-09T09:07:10;15.90;42.50
1025;DHT22;501;48.214;11.350;2023-05-09T09:09:38;15.90;43.50
1025;DHT22;501;48.214;11.350;2023-05-09T09:12:08;16.00;42.60
1025;DHT22;501;48.214;11.350;2023-05-09T09:14:37;16.00;42.70
1025;DHT22;501;48.214;11.350;2023-05-09T09:17:04;16.10;42.40
1025;DHT22;501;48.214;11.350;2023-05-09T09:19:33;16.00;41.80
1025;DHT22;501;48.214;11.350;2023-05-09T09:22:03;16.10;43.10
1025;DHT22;501;48.214;11.350;2023-05-09T09:24:32;16.10;42.70
1025;DHT22;501;48.214;11.350;2023-05-09T09:27:04;16.20;43.20
1025;DHT22;501;48.214;11.350;2023-05-09T09:29:32;16.30;43.30
1025;DHT22;501;48.214;11.350;2023-05-09T09:32:01;16.30;43.30
1025;DHT22;501;48.214;11.350;2023-05-09T09:34:27;16.40;41.80
1025;DHT22;501;48.214;11.350;2023-05-09T09:36:52;16.50;41.50
1025;DHT22;501;48.214;11.350;2023-05-09T09:39:18;16.50;40.50
1025;DHT22;501;48.214;11.350;2023-05-09T09:41:44;16.60;42.60
1025;DHT22;501;48.214;11.350;2023-05-09T09:44:12;16.50;42.40
1025;DHT22;501;48.214;11.350;2023-05-09T09:46:49;16.60;41.10
1025;DHT22;501;48.214;11.350;2023-05-09T09:49:16;16.70;41.00
1025;DHT22;501;48.214;11.350;2023-05-09T09:51:43;16.70;41.50
1025;DHT22;501;48.214;11.350;2023-05-09T09:54:10;16.80;40.90
1025;DHT22;501;48.214;11.350;2023-05-09T09:56:41;16.90;41.70
1025;DHT22;501;48.214;11.350;2023-05-09T09:59:17;16.90;41.90
1025;DHT22;501;48.214;11.350;2023-05-09T10:04:25;17.00;39.10
1025;DHT22;501;48.214;11.350;2023-05-09T10:06:55;17.00;39.70
1025;DHT22;501;48.214;11.350;2023-05-09T10:09:25;17.10;40.80
1025;DHT22;501;48.214;11.350;2023-05-09T10:11:52;17.10;40.10
1025;DHT22;501;48.214;11.350;2023-05-09T10:14:20;17.20;40.40
1025;DHT22;501;48.214;11.350;2023-05-09T10:16:54;17.20;39.90
1025;DHT22;501;48.214;11.350;2023-05-09T10:19:21;17.30;39.80
1025;DHT22;501;48.214;11.350;2023-05-09T10:21:53;17.40;40.00
1025;DHT22;501;48.214;11.350;2023-05-09T10:24:46;17.40;39.50
1025;DHT22;501;48.214;11.350;2023-05-09T10:27:12;17.50;39.10
1025;DHT22;501;48.214;11.350;2023-05-09T10:30:01;17.60;39.90
1025;DHT22;501;48.214;11.350;2023-05-09T10:32:38;17.60;39.60
1025;DHT22;501;48.214;11.350;2023-05-09T10:35:08;17.70;38.60
1025;DHT22;501;48.214;11.350;2023-05-09T10:37:36;17.80;37.70
1025;DHT22;501;48.214;11.350;2023-05-09T10:40:03;17.90;37.20
1025;DHT22;501;48.214;11.350;2023-05-09T10:42:29;17.90;37.30
1025;DHT22;501;48.214;11.350;2023-05-09T10:44:56;17.90;37.80
1025;DHT22;501;48.214;11.350;2023-05-09T10:47:26;17.90;38.20
1025;DHT22;501;48.214;11.350;2023-05-09T10:49:53;17.90;37.10
1025;DHT22;501;48.214;11.350;2023-05-09T10:52:21;18.00;39.00
1025;DHT22;501;48.214;11.350;2023-05-09T10:55:01;18.10;39.10
1025;DHT22;501;48.214;11.350;2023-05-09T10:57:29;18.20;38.50
1025;DHT22;501;48.214;11.350;2023-05-09T10:59:57;18.30;37.40
1025;DHT22;501;48.214;11.350;2023-05-09T11:02:23;18.40;38.60
1025;DHT22;501;48.214;11.350;2023-05-09T11:05:16;18.60;38.70
1025;DHT22;501;48.214;11.350;2023-05-09T11:07:42;18.70;37.90
1025;DHT22;501;48.214;11.350;2023-05-09T11:10:14;18.80;35.80
1025;DHT22;501;48.214;11.350;2023-05-09T11:12:58;18.90;36.10
1025;DHT22;501;48.214;11.350;2023-05-09T11:15:24;19.10;35.80
1025;DHT22;501;48.214;11.350;2023-05-09T11:18:12;19.20;35.10
1025;DHT22;501;48.214;11.350;2023-05-09T11:20:45;19.40;35.40
1025;DHT22;501;48.214;11.350;2023-05-09T11:23:16;19.60;35.40
1025;DHT22;501;48.214;11.350;2023-05-09T11:25:45;19.80;34.40
1025;DHT22;501;48.214;11.350;2023-05-09T11:28:25;20.00;34.50
1025;DHT22;501;48.214;11.350;2023-05-09T11:30:52;20.30;34.50
1025;DHT22;501;48.214;11.350;2023-05-09T11:33:26;20.50;35.20
1025;DHT22;501;48.214;11.350;2023-05-09T11:36:21;20.80;34.30
1025;DHT22;501;48.214;11.350;2023-05-09T11:41:27;21.50;32.20
1025;DHT22;501;48.214;11.350;2023-05-09T11:43:53;21.90;31.50
1025;DHT22;501;48.214;11.350;2023-05-09T11:46:20;22.20;30.50
1025;DHT22;501;48.214;11.350;2023-05-09T11:48:47;22.50;30.30
1025;DHT22;501;48.214;11.350;2023-05-09T11:51:17;22.70;29.30
1025;DHT22;501;48.214;11.350;2023-05-09T11:53:44;23.00;29.40
1025;DHT22;501;48.214;11.350;2023-05-09T11:56:12;23.20;28.70
1025;DHT22;501;48.214;11.350;2023-05-09T11:58:39;23.30;29.30
1025;DHT22;501;48.214;11.350;2023-05-09T12:01:05;23.40;28.70
1025;DHT22;501;48.214;11.350;2023-05-09T12:03:31;23.40;28.80
1025;DHT22;501;48.214;11.350;2023-05-09T12:05:57;23.50;28.80
1025;DHT22;501;48.214;11.350;2023-05-09T12:08:23;23.80;28.10
1025;DHT22;501;48.214;11.350;2023-05-09T12:10:50;24.00;27.90
1025;DHT22;501;48.214;11.350;2023-05-09T12:13:16;24.20;27.60
1025;DHT22;501;48.214;11.350;2023-05-09T12:15:43;24.40;27.40
1025;DHT22;501;48.214;11.350;2023-05-09T12:18:09;24.50;28.00
1025;DHT22;501;48.214;11.350;2023-05-09T12:20:48;24.50;27.60
1025;DHT22;501;48.214;11.350;2023-05-09T12:23:17;24.50;27.90
1025;DHT22;501;48.214;11.350;2023-05-09T12:25:53;24.70;26.70
1025;DHT22;501;48.214;11.350;2023-05-09T12:28:23;24.80;27.00
1025;DHT22;501;48.214;11.350;2023-05-09T12:30:50;24.90;26.60
1025;DHT22;501;48.214;11.350;2023-05-09T12:33:16;25.00;26.70
1025;DHT22;501;48.214;11.350;2023-05-09T12:35:46;25.00;26.70
1025;DHT22;501;48.214;11.350;2023-05-09T12:38:21;25.20;26.80
1025;DHT22;501;48.214;11.350;2023-05-09T12:40:48;25.30;26.90
1025;DHT22;501;48.214;11.350;2023-05-09T12:43:23;25.40;26.90
1025;DHT22;501;48.214;11.350;2023-05-09T12:45:51;25.60;26.70
1025;DHT22;501;48.214;11.350;2023-05-09T12:48:17;25.80;27.10
1025;DHT22;501;48.214;11.350;2023-05-09T12:50:46;25.90;24.90
1025;DHT22;501;48.214;11.350;2023-05-09T12:53:11;26.00;25.00
1025;DHT22;501;48.214;11.350;2023-05-09T12:55:38;26.00;24.50
1025;DHT22;501;48.214;11.350;2023-05-09T12:58:05;26.00;24.90
1025;DHT22;501;48.214;11.350;2023-05-09T13:00:43;26.10;24.80
1025;DHT22;501;48.214;11.350;2023-05-09T13:03:20;26.10;25.40
1025;DHT22;501;48.214;11.350;2023-05-09T13:06:01;26.20;25.40
1025;DHT22;501;48.214;11.350;2023-05-09T13:08:28;26.30;25.20
1025;DHT22;501;48.214;11.350;2023-05-09T13:10:54;26.40;24.50
1025;DHT22;501;48.214;11.350;2023-05-09T13:13:23;26.50;24.40
1025;DHT22;501;48.214;11.350;2023-05-09T13:15:51;26.60;26.00
1025;DHT22;501;48.214;11.350;2023-05-09T13:18:16;26.70;24.30
1025;DHT22;501;48.214;11.350;2023-05-09T13:20:42;26.70;23.70
1025;DHT22;501;48.214;11.350;2023-05-09T13:23:08;26.80;24.70
1025;DHT22;501;48.214;11.350;2023-05-09T13:25:33;26.90;23.90
1025;DHT22;501;48.214;11.350;2023-05-09T13:27:59;26.80;25.00
1025;DHT22;501;48.214;11.350;2023-05-09T13:30:25;26.90;24.40
1025;DHT22;501;48.214;11.350;2023-05-09T13:32:50;26.90;24.20
1025;DHT22;501;48.214;11.350;2023-05-09T13:35:16;26.90;23.80
1025;DHT22;501;48.214;11.350;2023-05-09T13:37:42;27.00;23.40
1025;DHT22;501;48.214;11.350;2023-05-09T13:40:09;27.00;22.70
1025;DHT22;501;48.214;11.350;2023-05-09T13:42:34;27.00;23.90
1025;DHT22;501;48.214;11.350;2023-05-09T13:45:01;27.00;23.10
1025;DHT22;501;48.214;11.350;2023-05-09T13:47:26;27.10;23.20
1025;DHT22;501;48.214;11.350;2023-05-09T13:49:52;27.10;22.90
1025;DHT22;501;48.214;11.350;2023-05-09T13:52:18;27.10;24.00
1025;DHT22;501;48.214;11.350;2023-05-09T13:54:44;27.20;23.20
1025;DHT22;501;48.214;11.350;2023-05-09T13:57:10;27.10;23.00
1025;DHT22;501;48.214;11.350;2023-05-09T13:59:37;27.10;23.30
1025;DHT22;501;48.214;11.350;2023-05-09T14:02:02;27.10;23.70
1025;DHT22;501;48.214;11.350;2023-05-09T14:04:29;27.20;23.60
1025;DHT22;501;48.214;11.350;2023-05-09T14:06:59;27.30;22.60
1025;DHT22;501;48.214;11.350;2023-05-09T14:09:25;27.30;22.60
1025;DHT22;501;48.214;11.350;2023-05-09T14:11:52;27.20;24.00
1025;DHT22;501;48.214;11.350;2023-05-09T14:14:23;27.10;23.20
1025;DHT22;501;48.214;11.350;2023-05-09T14:16:49;27.10;23.00
1025;DHT22;501;48.214;11.350;2023-05-09T14:19:15;26.90;22.60
1025;DHT22;501;48.214;11.350;2023-05-09T14:21:44;26.90;23.30
1025;DHT22;501;48.214;11.350;2023-05-09T14:24:11;26.80;23.80
1025;DHT22;501;48.214;11.350;2023-05-09T14:26:38;26.70;23.80
1025;DHT22;501;48.214;11.350;2023-05-09T14:29:04;26.70;23.80
1025;DHT22;501;48.214;11.350;2023-05-09T14:31:31;26.60;23.70
1025;DHT22;501;48.214;11.350;2023-05-09T14:33:57;26.60;23.70
1025;DHT22;501;48.214;11.350;2023-05-09T14:36:25;26.50;22.80
1025;DHT22;501;48.214;11.350;2023-05-09T14:38:51;26.50;23.30
1025;DHT22;501;48.214;11.350;2023-05-09T14:41:17;26.50;23.40
1025;DHT22;501;48.214;11.350;2023-05-09T14:43:42;26.50;23.70
1025;DHT22;501;48.214;11.350;2023-05-09T14:46:08;26.50;23.40
1025;DHT22;501;48.214;11.350;2023-05-09T14:48:34;26.60;23.70
1025;DHT22;501;48.214;11.350;2023-05-09T14:51:00;26.70;23.40
1025;DHT22;501;48.214;11.350;2023-05-09T14:53:26;26.70;23.00
1025;DHT22;501;48.214;11.350;2023-05-09T14:55:53;26.70;22.60
1025;DHT22;501;48.214;11.350;2023-05-09T14:58:19;26.60;23.10
1025;DHT22;501;48.214;11.350;2023-05-09T15:00:46;26.60;23.10
1025;DHT22;501;48.214;11.350;2023-05-09T15:03:12;26.70;23.80
1025;DHT22;501;48.214;11.350;2023-05-09T15:05:38;26.80;22.90
1025;DHT22;501;48.214;11.350;2023-05-09T15:08:04;26.80;22.80
1025;DHT22;501;48.214;11.350;2023-05-09T15:10:31;26.60;22.40
1025;DHT22;501;48.214;11.350;2023-05-09T15:12:57;26.30;22.50
1025;DHT22;501;48.214;11.350;2023-05-09T15:15:23;26.00;23.40
1025;DHT22;501;48.214;11.350;2023-05-09T15:17:49;25.90;23.90
1025;DHT22;501;48.214;11.350;2023-05-09T15:20:15;25.90;23.30
1025;DHT22;501;48.214;11.350;2023-05-09T15:22:45;25.90;23.40
1025;DHT22;501;48.214;11.350;2023-05-09T15:25:12;25.70;22.80
1025;DHT22;501;48.214;11.350;2023-05-09T15:27:37;25.60;24.20
1025;DHT22;501;48.214;11.350;2023-05-09T15:30:05;25.40;23.10
1025;DHT22;501;48.214;11.350;2023-05-09T15:32:30;25.20;23.50
1025;DHT22;501;48.214;11.350;2023-05-09T15:34:56;25.00;23.80
1025;DHT22;501;48.214;11.350;2023-05-09T15:37:22;24.70;24.00
1025;DHT22;501;48.214;11.350;2023-05-09T15:39:47;24.50;24.70
1025;DHT22;501;48.214;11.350;2023-05-09T15:42:14;24.30;24.50
1025;DHT22;501;48.214;11.350;2023-05-09T15:44:41;24.00;24.60
1025;DHT22;501;48.214;11.350;2023-05-09T15:47:07;23.80;25.30
1025;DHT22;501;48.214;11.350;2023-05-09T15:49:33;23.50;25.70
1025;DHT22;501;48.214;11.350;2023-05-09T15:52:02;23.40;26.40
1025;DHT22;501;48.214;11.350;2023-05-09T15:54:28;23.30;25.50
1025;DHT22;501;48.214;11.350;2023-05-09T15:56:53;23.20;25.50
1025;DHT22;501;48.214;11.350;2023-05-09T15:59:19;23.10;25.40
1025;DHT22;501;48.214;11.350;2023-05-09T16:01:45;22.90;26.20
1025;DHT22;501;48.214;11.350;2023-05-09T16:04:11;22.80;26.50
1025;DHT22;501;48.214;11.350;2023-05-09T16:06:38;22.70;26.60
1025;DHT22;501;48.214;11.350;2023-05-09T16:09:05;22.60;27.20
1025;DHT22;501;48.214;11.350;2023-05-09T16:11:31;22.60;27.50
1025;DHT22;501;48.214;11.350;2023-05-09T16:13:57;22.60;26.80
1025;DHT22;501;48.214;11.350;2023-05-09T16:16:23;22.50;27.10
1025;DHT22;501;48.214;11.350;2023-05-09T16:18:49;22.50;26.70